Check out our new BloomSky Weather System.

Active alerts


No alerts


Thunder radar  blitzortung!


Rain radar more information rain snow radar


Visit our other weather sites:

Template documentation
and downloads

And another site



Weather Underground History page Text

Daily Summary for December 2, 2017 Units:  English    Metric   Both
« Previous Day
Next Day »
Daily Weekly Monthly Yearly Custom
  High: Low: Average:
Temperature: TemperatureF °F 48.0 °F 62.6 °F
Dew Point: DewpointF °F 47.1 °F 55.4 °F
Humidity: Humidity % 49 % 80 %
Wind Speed: WindSpeedMPH mph 0.0 mph 0.7 mph
Wind Gust: WindSpeedGustMPH mph - -
Wind:- - SSE
Pressure: PressureIn in 30.06 in -
Precipitation: 0.00 in    
Historical Graphs
 
 
Tabular Data for December 2, 2017
Time Temperature Dew Point Pressure Wind Wind Speed Wind Gust Humidity Rainfall Rate (Hourly)
TemperatureF °F DewpointF °F PressureIn in Calm     Humidity % HourlyPrecipIn in
00:01 53.1 °F 51.1 °F 30.13 in Calm     93 % 0.00 in
00:06 52.9 °F 50.9 °F 30.12 in Calm     93 % 0.00 in
00:16 52.5 °F 50.5 °F 30.12 in Calm     93 % 0.00 in
00:21 52.5 °F 50.9 °F 30.12 in Calm     94 % 0.00 in
00:26 52.3 °F 50.7 °F 30.12 in Calm     94 % 0.00 in
00:31 52.2 °F 50.5 °F 30.12 in Calm     94 % 0.00 in
00:41 51.4 °F 49.5 °F 30.11 in Calm     93 % 0.00 in
00:46 51.3 °F 49.6 °F 30.11 in Calm     94 % 0.00 in
00:51 51.4 °F 49.8 °F 30.11 in Calm     94 % 0.00 in
01:01 51.8 °F 50.4 °F 30.11 in Calm   1.0 mph 95 % 0.00 in
01:06 51.6 °F 50.0 °F 30.11 in Calm   1.0 mph 94 % 0.00 in
01:16 51.6 °F 50.2 °F 30.11 in Calm     95 % 0.00 in
01:27 51.3 °F 49.8 °F 30.11 in Calm     95 % 0.00 in
01:32 51.1 °F 49.6 °F 30.11 in Calm     95 % 0.00 in
01:42 51.3 °F 49.8 °F 30.11 in Calm     95 % 0.00 in
01:47 51.3 °F 49.8 °F 30.11 in Calm     95 % 0.00 in
02:07 50.9 °F 49.8 °F 30.10 in Calm   1.0 mph 96 % 0.00 in
02:12 50.9 °F 49.8 °F 30.10 in Calm   1.0 mph 96 % 0.00 in
02:17 50.9 °F 49.8 °F 30.10 in Calm   1.0 mph 96 % 0.00 in
02:22 50.9 °F 49.8 °F 30.10 in Calm     96 % 0.00 in
02:27 50.7 °F 49.6 °F 30.10 in Calm     96 % 0.00 in
02:32 50.7 °F 49.6 °F 30.10 in Calm     96 % 0.00 in
02:37 50.5 °F 49.5 °F 30.10 in Calm     96 % 0.00 in
02:42 50.5 °F 49.5 °F 30.10 in Calm     96 % 0.00 in
02:47 50.4 °F 48.9 °F 30.09 in Calm     95 % 0.00 in
03:02 49.5 °F 48.0 °F 30.09 in Calm     95 % 0.00 in
03:17 49.6 °F 48.6 °F 30.09 in Calm     96 % 0.00 in
03:22 49.8 °F 48.7 °F 30.09 in Calm     96 % 0.00 in
03:27 50.0 °F 48.9 °F 30.09 in Calm     96 % 0.00 in
03:32 50.0 °F 48.9 °F 30.09 in Calm     96 % 0.00 in
03:37 49.8 °F 48.7 °F 30.09 in Calm     96 % 0.00 in
03:47 49.5 °F 48.4 °F 30.09 in Calm     96 % 0.00 in
03:52 49.3 °F 48.2 °F 30.09 in Calm     96 % 0.00 in
03:57 49.5 °F 48.4 °F 30.10 in Calm     96 % 0.00 in
04:08 49.3 °F 48.4 °F 30.10 in Calm     97 % 0.00 in
04:13 49.3 °F 48.2 °F 30.10 in Calm     96 % 0.00 in
04:18 49.3 °F 48.4 °F 30.10 in Calm     97 % 0.00 in
04:23 49.3 °F 48.4 °F 30.11 in Calm     97 % 0.00 in
04:28 49.1 °F 48.2 °F 30.10 in Calm     97 % 0.00 in
04:38 48.9 °F 48.0 °F 30.10 in Calm     97 % 0.00 in
04:48 49.3 °F 48.4 °F 30.10 in Calm     97 % 0.00 in
04:53 49.5 °F 48.6 °F 30.10 in Calm     97 % 0.00 in
04:58 49.5 °F 48.6 °F 30.10 in Calm     97 % 0.00 in
05:03 49.6 °F 48.7 °F 30.10 in Calm     97 % 0.00 in
05:08 49.5 °F 48.6 °F 30.10 in Calm     97 % 0.00 in
05:09 49.5 °F 48.6 °F 30.10 in Calm     97 % 0.00 in
05:14 49.3 °F 48.4 °F 30.10 in Calm     97 % 0.00 in
05:20 48.9 °F 48.0 °F 30.10 in Calm     97 % 0.00 in
05:25 49.1 °F 48.2 °F 30.10 in Calm     97 % 0.00 in
05:30 49.1 °F 48.2 °F 30.10 in Calm   1.0 mph 97 % 0.00 in
05:45 48.7 °F 47.8 °F 30.11 in Calm   1.0 mph 97 % 0.00 in
05:55 48.7 °F 47.8 °F 30.11 in Calm   1.0 mph 97 % 0.00 in
05:56 48.7 °F 47.8 °F 30.11 in Calm   1.0 mph 97 % 0.00 in
06:07 48.6 °F 47.7 °F 30.12 in Calm   1.0 mph 97 % 0.00 in
06:12 48.6 °F 47.7 °F 30.12 in Calm     97 % 0.00 in
06:17 48.6 °F 48.0 °F 30.12 in Calm     98 % 0.00 in
06:22 48.6 °F 48.0 °F 30.12 in Calm     98 % 0.00 in
06:27 48.6 °F 48.0 °F 30.13 in Calm     98 % 0.00 in
06:28 48.6 °F 48.0 °F 30.13 in Calm     98 % 0.00 in
06:33 48.4 °F 47.5 °F 30.12 in Calm     97 % 0.00 in
06:38 48.0 °F 47.1 °F 30.12 in Calm     97 % 0.00 in
06:48 48.4 °F 47.8 °F 30.13 in Calm     98 % 0.00 in
06:53 48.0 °F 47.5 °F 30.13 in Calm   1.0 mph 98 % 0.00 in
06:58 48.0 °F 47.1 °F 30.13 in Calm   1.0 mph 97 % 0.00 in
07:03 48.0 °F 47.5 °F 30.13 in Calm   1.0 mph 98 % 0.00 in
07:08 48.2 °F 47.7 °F 30.13 in Calm     98 % 0.00 in
07:13 48.4 °F 47.8 °F 30.14 in Calm     98 % 0.00 in
07:23 48.7 °F 48.2 °F 30.14 in Calm     98 % 0.00 in
07:33 48.9 °F 48.4 °F 30.14 in Calm     98 % 0.00 in
07:38 49.6 °F 49.1 °F 30.14 in Calm     98 % 0.00 in
07:53 52.2 °F 51.8 °F 30.14 in Calm   1.0 mph 99 % 0.00 in
08:03 54.0 °F 53.6 °F 30.15 in Calm   1.0 mph 99 % 0.00 in
08:08 54.5 °F 54.1 °F 30.15 in Calm   1.0 mph 99 % 0.00 in
08:13 55.0 °F 54.7 °F 30.15 in Calm   1.0 mph 99 % 0.00 in
08:18 55.4 °F 55.0 °F 30.15 in Calm   1.0 mph 99 % 0.00 in
08:28 55.8 °F 55.2 °F 30.15 in Calm   1.0 mph 98 % 0.00 in
08:38 57.0 °F 56.7 °F 30.16 in Calm   1.0 mph 99 % 0.00 in
08:49 57.6 °F 57.0 °F 30.17 in Calm   2.0 mph 98 % 0.00 in
08:54 58.3 °F 57.7 °F 30.17 in North 1.0 mph 2.0 mph 98 % 0.00 in
08:59 58.6 °F 57.7 °F 30.17 in Calm   2.0 mph 97 % 0.00 in
09:09 60.1 °F 59.0 °F 30.17 in East 1.0 mph 2.0 mph 96 % 0.00 in
09:19 61.3 °F 59.5 °F 30.17 in Calm   2.0 mph 94 % 0.00 in
09:29 63.0 °F 60.3 °F 30.17 in ENE 1.0 mph 2.0 mph 91 % 0.00 in
09:34 63.5 °F 59.9 °F 30.17 in Calm   3.0 mph 88 % 0.00 in
09:39 63.9 °F 60.3 °F 30.17 in South 1.0 mph 3.0 mph 88 % 0.00 in
09:44 65.1 °F 60.8 °F 30.17 in South 2.0 mph 3.0 mph 86 % 0.00 in
09:49 65.5 °F 60.3 °F 30.17 in SSE 2.0 mph 4.0 mph 83 % 0.00 in
09:54 66.2 °F 60.8 °F 30.17 in Calm   4.0 mph 83 % 0.00 in
09:59 66.6 °F 60.6 °F 30.17 in SSE 1.0 mph 4.0 mph 81 % 0.00 in
10:04 67.3 °F 61.9 °F 30.17 in SW 1.0 mph 4.0 mph 83 % 0.00 in
10:09 68.5 °F 61.7 °F 30.17 in SSE 2.0 mph 3.0 mph 79 % 0.00 in
10:14 69.1 °F 61.5 °F 30.17 in SE 1.0 mph 4.0 mph 77 % 0.00 in
10:19 69.1 °F 61.2 °F 30.17 in SW 2.0 mph 5.0 mph 76 % 0.00 in
10:24 69.3 °F 61.3 °F 30.17 in SW 3.0 mph 6.0 mph 76 % 0.00 in
10:29 69.6 °F 61.7 °F 30.17 in SW 3.0 mph 6.0 mph 76 % 0.00 in
10:34 70.0 °F 61.3 °F 30.17 in South 2.0 mph 6.0 mph 74 % 0.00 in
10:39 70.0 °F 61.3 °F 30.17 in SSW 4.0 mph 7.0 mph 74 % 0.00 in
10:44 70.3 °F 61.3 °F 30.17 in ESE 3.0 mph 7.0 mph 73 % 0.00 in
10:49 70.3 °F 61.3 °F 30.17 in SE 5.0 mph 7.0 mph 73 % 0.00 in
10:54 70.9 °F 61.0 °F 30.17 in SSW 2.0 mph 5.0 mph 71 % 0.00 in
10:59 71.1 °F 61.5 °F 30.16 in SSW 5.0 mph 5.0 mph 72 % 0.00 in
11:04 71.4 °F 61.9 °F 30.16 in SSE 1.0 mph 6.0 mph 72 % 0.00 in
11:09 71.8 °F 61.5 °F 30.16 in SE 4.0 mph 6.0 mph 70 % 0.00 in
11:14 72.1 °F 61.0 °F 30.16 in South 2.0 mph 6.0 mph 68 % 0.00 in
11:24 72.9 °F 61.7 °F 30.16 in Calm   6.0 mph 68 % 0.00 in
11:39 73.0 °F 60.1 °F 30.16 in SE 2.0 mph 6.0 mph 64 % 0.00 in
11:44 73.0 °F 60.6 °F 30.15 in East 2.0 mph 6.0 mph 65 % 0.00 in
11:54 73.8 °F 59.9 °F 30.15 in SSE 4.0 mph 4.0 mph 62 % 0.00 in
11:59 73.8 °F 60.8 °F 30.15 in East 1.0 mph 7.0 mph 64 % 0.00 in
12:04 73.9 °F 61.0 °F 30.14 in Calm   7.0 mph 64 % 0.00 in
12:09 74.5 °F 60.6 °F 30.14 in SSW 2.0 mph 7.0 mph 62 % 0.00 in
12:14 74.7 °F 59.9 °F 30.13 in SSW 3.0 mph 5.0 mph 60 % 0.00 in
12:19 74.5 °F 59.2 °F 30.13 in SE 3.0 mph 5.0 mph 59 % 0.00 in
12:24 74.8 °F 60.1 °F 30.13 in SSW 1.0 mph 6.0 mph 60 % 0.00 in
12:29 75.4 °F 60.4 °F 30.12 in ENE 1.0 mph 6.0 mph 60 % 0.00 in
12:34 75.4 °F 60.1 °F 30.12 in Calm   6.0 mph 59 % 0.00 in
12:50 75.4 °F 59.0 °F 30.12 in East 1.0 mph 5.0 mph 57 % 0.00 in
12:55 75.4 °F 60.1 °F 30.11 in ENE 2.0 mph 5.0 mph 59 % 0.00 in
13:00 76.1 °F 58.8 °F 30.11 in South 1.0 mph 5.0 mph 55 % 0.00 in
13:10 75.9 °F 58.6 °F 30.11 in SW 1.0 mph 4.0 mph 55 % 0.00 in
13:15 76.3 °F 58.5 °F 30.10 in WSW 1.0 mph 4.0 mph 54 % 0.00 in
13:20 76.6 °F 57.7 °F 30.10 in SSW 2.0 mph 3.0 mph 52 % 0.00 in
13:25 77.2 °F 58.3 °F 30.10 in SW 3.0 mph 5.0 mph 52 % 0.00 in
13:30 77.4 °F 58.8 °F 30.09 in SW 1.0 mph 5.0 mph 53 % 0.00 in
13:35 77.7 °F 58.6 °F 30.09 in SE 1.0 mph 5.0 mph 52 % 0.00 in
13:45 77.7 °F 58.6 °F 30.09 in SSE 3.0 mph 7.0 mph 52 % 0.00 in
13:50 77.7 °F 58.6 °F 30.09 in SW 4.0 mph 7.0 mph 52 % 0.00 in
13:55 77.7 °F 58.6 °F 30.09 in SSE 2.0 mph 7.0 mph 52 % 0.00 in
14:00 77.7 °F 58.6 °F 30.08 in SSW 1.0 mph 6.0 mph 52 % 0.00 in
14:15 78.3 °F 58.6 °F 30.08 in SE 1.0 mph 6.0 mph 51 % 0.00 in
14:20 78.4 °F 58.8 °F 30.08 in SE 2.0 mph 5.0 mph 51 % 0.00 in
14:25 78.3 °F 58.1 °F 30.08 in SE 1.0 mph 5.0 mph 50 % 0.00 in
14:40 78.3 °F 58.6 °F 30.07 in Calm   5.0 mph 51 % 0.00 in
14:45 78.8 °F 59.7 °F 30.07 in SSW 2.0 mph 5.0 mph 52 % 0.00 in
14:50 79.3 °F 59.0 °F 30.07 in SE 3.0 mph 4.0 mph 50 % 0.00 in
14:55 79.2 °F 59.0 °F 30.07 in SSE 4.0 mph 8.0 mph 50 % 0.00 in
15:00 78.6 °F 58.5 °F 30.06 in SE 2.0 mph 8.0 mph 50 % 0.00 in
15:05 78.4 °F 58.3 °F 30.06 in SE 2.0 mph 8.0 mph 50 % 0.00 in
15:10 78.3 °F 58.6 °F 30.06 in SE 2.0 mph 6.0 mph 51 % 0.00 in
15:20 78.4 °F 58.8 °F 30.06 in SSE 4.0 mph 6.0 mph 51 % 0.00 in
15:25 78.4 °F 58.3 °F 30.06 in ESE 2.0 mph 6.0 mph 50 % 0.00 in
15:30 78.3 °F 57.6 °F 30.06 in South 3.0 mph 7.0 mph 49 % 0.00 in
15:35 78.1 °F 57.9 °F 30.06 in East 3.0 mph 7.0 mph 50 % 0.00 in
15:41 78.1 °F 57.9 °F 30.06 in SSW 2.0 mph 7.0 mph 50 % 0.00 in
15:46 78.1 °F 57.9 °F 30.06 in SE 2.0 mph 5.0 mph 50 % 0.00 in
15:56 78.1 °F 57.9 °F 30.06 in SSE 4.0 mph 4.0 mph 50 % 0.00 in
16:01 77.7 °F 58.1 °F 30.06 in SE 1.0 mph 5.0 mph 51 % 0.00 in
16:02 77.7 °F 58.1 °F 30.06 in SE 1.0 mph 5.0 mph 51 % 0.00 in
16:12 77.4 °F 58.3 °F 30.06 in SE 2.0 mph 5.0 mph 52 % 0.00 in
16:17 77.2 °F 58.3 °F 30.06 in Calm   4.0 mph 52 % 0.00 in
16:28 76.5 °F 58.6 °F 30.06 in ESE 4.0 mph 5.0 mph 54 % 0.00 in
16:33 76.3 °F 58.5 °F 30.06 in ESE 2.0 mph 5.0 mph 54 % 0.00 in
16:48 75.6 °F 58.8 °F 30.07 in Calm   5.0 mph 56 % 0.00 in
16:58 74.7 °F 58.5 °F 30.07 in East 2.0 mph 4.0 mph 57 % 0.00 in
17:00 74.5 °F 58.3 °F 30.07 in East 1.0 mph 4.0 mph 57 % 0.00 in
17:10 73.8 °F 58.1 °F 30.07 in Calm   3.0 mph 58 % 0.00 in
17:15 73.0 °F 57.9 °F 30.08 in Calm   3.0 mph 59 % 0.00 in
17:20 72.7 °F 57.6 °F 30.08 in Calm   3.0 mph 59 % 0.00 in
17:26 72.1 °F 57.9 °F 30.08 in ESE 1.0 mph 1.0 mph 61 % 0.00 in
17:31 71.8 °F 58.1 °F 30.09 in Calm   1.0 mph 62 % 0.00 in
17:36 71.4 °F 57.7 °F 30.09 in Calm   1.0 mph 62 % 0.00 in
17:46 70.7 °F 57.9 °F 30.08 in Calm   1.0 mph 64 % 0.00 in
18:01 69.3 °F 57.9 °F 30.09 in Calm   1.0 mph 67 % 0.00 in
18:06 69.1 °F 58.1 °F 30.09 in Calm   1.0 mph 68 % 0.00 in
18:11 68.7 °F 58.5 °F 30.09 in Calm   2.0 mph 70 % 0.00 in
18:16 68.7 °F 59.0 °F 30.09 in SE 1.0 mph 2.0 mph 71 % 0.00 in
18:21 68.7 °F 59.4 °F 30.09 in SE 1.0 mph 2.0 mph 72 % 0.00 in
18:26 68.7 °F 59.4 °F 30.09 in South 1.0 mph 2.0 mph 72 % 0.00 in
18:31 68.7 °F 59.7 °F 30.09 in Calm   2.0 mph 73 % 0.00 in
18:36 68.5 °F 59.5 °F 30.09 in ESE 1.0 mph 3.0 mph 73 % 0.00 in
18:51 68.4 °F 59.4 °F 30.10 in Calm   3.0 mph 73 % 0.00 in
18:56 68.2 °F 59.2 °F 30.10 in Calm   2.0 mph 73 % 0.00 in
19:01 68.0 °F 59.0 °F 30.10 in SE 1.0 mph 2.0 mph 73 % 0.00 in
19:06 67.8 °F 58.8 °F 30.11 in Calm   2.0 mph 73 % 0.00 in
19:11 67.6 °F 59.0 °F 30.11 in Calm   2.0 mph 74 % 0.00 in
19:16 67.6 °F 59.0 °F 30.11 in SE 1.0 mph 2.0 mph 74 % 0.00 in
19:21 67.6 °F 59.0 °F 30.11 in ESE 1.0 mph 3.0 mph 74 % 0.00 in
19:26 67.5 °F 58.8 °F 30.11 in Calm   3.0 mph 74 % 0.00 in
19:31 67.5 °F 59.2 °F 30.11 in SE 1.0 mph 3.0 mph 75 % 0.00 in
19:36 67.3 °F 59.0 °F 30.11 in SSE 1.0 mph 3.0 mph 75 % 0.00 in
19:41 67.3 °F 59.0 °F 30.12 in SSE 2.0 mph 3.0 mph 75 % 0.00 in
19:52 66.9 °F 59.2 °F 30.12 in ESE 1.0 mph 3.0 mph 76 % 0.00 in
20:02 66.6 °F 59.2 °F 30.12 in ESE 2.0 mph 4.0 mph 77 % 0.00 in
20:03 66.6 °F 59.2 °F 30.12 in Calm   4.0 mph 77 % 0.00 in
20:08 66.4 °F 59.0 °F 30.12 in Calm   4.0 mph 77 % 0.00 in
20:13 66.0 °F 58.6 °F 30.12 in Calm   3.0 mph 77 % 0.00 in
20:18 65.8 °F 58.8 °F 30.13 in Calm   2.0 mph 78 % 0.00 in
20:33 64.9 °F 58.3 °F 30.13 in Calm   2.0 mph 79 % 0.00 in
20:37 64.8 °F 58.1 °F 30.13 in Calm     79 % 0.00 in
20:42 64.6 °F 58.3 °F 30.13 in Calm     80 % 0.00 in
20:52 64.4 °F 58.1 °F 30.13 in Calm   1.0 mph 80 % 0.00 in
21:02 64.4 °F 58.5 °F 30.13 in ESE 1.0 mph 3.0 mph 81 % 0.00 in
21:07 64.4 °F 58.5 °F 30.13 in SE 2.0 mph 3.0 mph 81 % 0.00 in
21:12 64.2 °F 58.3 °F 30.13 in Calm   3.0 mph 81 % 0.00 in
21:17 64.2 °F 58.3 °F 30.13 in Calm   2.0 mph 81 % 0.00 in
21:22 63.9 °F 57.9 °F 30.13 in Calm   2.0 mph 81 % 0.00 in
21:27 63.7 °F 58.1 °F 30.13 in Calm   2.0 mph 82 % 0.00 in
21:32 63.7 °F 58.5 °F 30.12 in SSE 1.0 mph 1.0 mph 83 % 0.00 in
21:37 63.7 °F 58.8 °F 30.12 in South 2.0 mph 3.0 mph 84 % 0.00 in
21:42 63.5 °F 58.6 °F 30.13 in Calm   3.0 mph 84 % 0.00 in
21:47 63.3 °F 58.5 °F 30.13 in Calm   3.0 mph 84 % 0.00 in
21:52 63.3 °F 58.8 °F 30.13 in Calm   2.0 mph 85 % 0.00 in
22:02 63.0 °F 58.6 °F 30.13 in Calm   1.0 mph 86 % 0.00 in
22:07 62.6 °F 58.3 °F 30.13 in Calm   1.0 mph 86 % 0.00 in
22:12 62.2 °F 57.9 °F 30.13 in Calm   1.0 mph 86 % 0.00 in
22:17 62.1 °F 58.1 °F 30.13 in Calm   1.0 mph 87 % 0.00 in
22:22 61.9 °F 58.3 °F 30.13 in Calm   1.0 mph 88 % 0.00 in
22:27 61.5 °F 58.3 °F 30.13 in Calm   1.0 mph 89 % 0.00 in
22:32 61.3 °F 58.1 °F 30.13 in Calm   1.0 mph 89 % 0.00 in
22:37 60.8 °F 57.6 °F 30.13 in Calm     89 % 0.00 in
22:42 60.4 °F 57.6 °F 30.13 in Calm     90 % 0.00 in
22:47 60.3 °F 57.4 °F 30.13 in Calm     90 % 0.00 in
22:52 60.1 °F 57.4 °F 30.13 in Calm     91 % 0.00 in
22:57 60.1 °F 57.7 °F 30.13 in Calm     92 % 0.00 in
23:02 60.3 °F 57.9 °F 30.13 in Calm   1.0 mph 92 % 0.00 in
23:07 60.3 °F 57.9 °F 30.13 in Calm   1.0 mph 92 % 0.00 in
23:12 60.3 °F 57.9 °F 30.13 in Calm   1.0 mph 92 % 0.00 in
23:22 60.1 °F 58.1 °F 30.12 in Calm   1.0 mph 93 % 0.00 in
23:27 59.9 °F 57.9 °F 30.12 in Calm   1.0 mph 93 % 0.00 in
23:32 59.7 °F 57.7 °F 30.13 in Calm   1.0 mph 93 % 0.00 in
23:47 59.4 °F 57.4 °F 30.12 in Calm     93 % 0.00 in
23:52 59.4 °F 57.4 °F 30.12 in Calm   1.0 mph 93 % 0.00 in
23:57 59.4 °F 57.6 °F 30.12 in Calm   1.0 mph 94 % 0.00 in
Spring, Texas: Villages of Bridgestone
Compliments of Weather Underground - 2.5 mb

Script developed by  Jim McMurry - jmcmurry@mwt.net Adapted for the template by  Wim van der Kuil - Leuven-Template.eu

You find our weather info also at:

UK Metoffice

WeatherCloud

Weather Underground

Mid-South Weather Network

AWEKAS

Citizen Weather Observer Program (CWOP)

HAMweather, WeatherForYou, PWS Weather

Equipment we use:

Weather-station
Davis Vantage Vue

Weather-program
Meteohub

Weather-server
Debian 7.9 x86 (Guest)

Provider
DreamHost

Davis Vantage Vue

Meteohub

Debian 7.9 x86 (Guest)

DreamHost